sensor_id;sensor_type;location;lat;lon;timestamp;pressure;altitude;pressure_sealevel;temperature;humidity
11444;BME280;5778;47.856;12.154;2022-09-01T00:02:10;96604.00;;;15.27;100.00
11444;BME280;5778;47.856;12.154;2022-09-01T00:04:41;96597.84;;;15.27;100.00
11444;BME280;5778;47.856;12.154;2022-09-01T00:07:09;96598.91;;;15.31;100.00
11444;BME280;5778;47.856;12.154;2022-09-01T00:09:38;96597.59;;;15.28;100.00
11444;BME280;5778;47.856;12.154;2022-09-01T00:12:07;96597.88;;;15.22;100.00
11444;BME280;5778;47.856;12.154;2022-09-01T00:14:38;96591.94;;;15.25;100.00
11444;BME280;5778;47.856;12.154;2022-09-01T00:17:08;96594.63;;;15.25;100.00
11444;BME280;5778;47.856;12.154;2022-09-01T00:19:36;96590.91;;;15.21;100.00
11444;BME280;5778;47.856;12.154;2022-09-01T00:22:04;96601.38;;;15.22;100.00
11444;BME280;5778;47.856;12.154;2022-09-01T00:24:32;96600.00;;;15.25;100.00
11444;BME280;5778;47.856;12.154;2022-09-01T00:27:01;96593.59;;;15.21;100.00
11444;BME280;5778;47.856;12.154;2022-09-01T00:29:28;96596.78;;;15.23;100.00
11444;BME280;5778;47.856;12.154;2022-09-01T00:31:55;96597.59;;;15.28;100.00
11444;BME280;5778;47.856;12.154;2022-09-01T00:34:23;96599.97;;;15.30;100.00
11444;BME280;5778;47.856;12.154;2022-09-01T00:36:50;96591.44;;;15.33;100.00
11444;BME280;5778;47.856;12.154;2022-09-01T00:39:17;96586.06;;;15.33;100.00
11444;BME280;5778;47.856;12.154;2022-09-01T00:41:44;96580.44;;;15.29;100.00
11444;BME280;5778;47.856;12.154;2022-09-01T00:44:16;96578.53;;;15.30;100.00
11444;BME280;5778;47.856;12.154;2022-09-01T00:46:49;96584.47;;;15.27;100.00
11444;BME280;5778;47.856;12.154;2022-09-01T00:49:20;96579.13;;;15.22;100.00
11444;BME280;5778;47.856;12.154;2022-09-01T00:51:52;96584.22;;;15.18;100.00
11444;BME280;5778;47.856;12.154;2022-09-01T00:54:23;96582.63;;;15.17;100.00
11444;BME280;5778;47.856;12.154;2022-09-01T00:56:53;96582.34;;;15.14;100.00
11444;BME280;5778;47.856;12.154;2022-09-01T00:59:23;96579.16;;;15.12;100.00
11444;BME280;5778;47.856;12.154;2022-09-01T01:01:50;96577.56;;;15.06;100.00
11444;BME280;5778;47.856;12.154;2022-09-01T01:04:18;96578.69;;;14.90;100.00
11444;BME280;5778;47.856;12.154;2022-09-01T01:06:47;96581.13;;;14.81;100.00
11444;BME280;5778;47.856;12.154;2022-09-01T01:09:25;96580.31;;;14.76;100.00
11444;BME280;5778;47.856;12.154;2022-09-01T01:11:52;96577.63;;;14.81;100.00
11444;BME280;5778;47.856;12.154;2022-09-01T01:14:26;96577.13;;;14.79;100.00
11444;BME280;5778;47.856;12.154;2022-09-01T01:16:58;96582.22;;;14.80;100.00
11444;BME280;5778;47.856;12.154;2022-09-01T01:19:32;96581.16;;;14.76;100.00
11444;BME280;5778;47.856;12.154;2022-09-01T01:22:28;96577.13;;;14.74;100.00
11444;BME280;5778;47.856;12.154;2022-09-01T01:25:17;96574.47;;;14.69;100.00
11444;BME280;5778;47.856;12.154;2022-09-01T01:27:47;96571.78;;;14.74;100.00
11444;BME280;5778;47.856;12.154;2022-09-01T01:30:17;96573.69;;;14.68;100.00
11444;BME280;5778;47.856;12.154;2022-09-01T01:32:45;96578.22;;;14.68;100.00
11444;BME280;5778;47.856;12.154;2022-09-01T01:35:15;96573.94;;;14.67;100.00
11444;BME280;5778;47.856;12.154;2022-09-01T01:37:46;96574.22;;;14.65;100.00
11444;BME280;5778;47.856;12.154;2022-09-01T01:40:19;96568.59;;;14.67;100.00
11444;BME280;5778;47.856;12.154;2022-09-01T01:42:48;96566.44;;;14.64;100.00
11444;BME280;5778;47.856;12.154;2022-09-01T01:45:18;96560.56;;;14.67;100.00
11444;BME280;5778;47.856;12.154;2022-09-01T01:47:48;96558.41;;;14.59;100.00
11444;BME280;5778;47.856;12.154;2022-09-01T01:50:18;96554.97;;;14.58;100.00
11444;BME280;5778;47.856;12.154;2022-09-01T01:52:45;96560.56;;;14.57;100.00
11444;BME280;5778;47.856;12.154;2022-09-01T01:55:14;96567.78;;;14.56;100.00
11444;BME280;5778;47.856;12.154;2022-09-01T01:57:46;96566.47;;;14.54;100.00
11444;BME280;5778;47.856;12.154;2022-09-01T02:00:20;96566.44;;;14.59;100.00
11444;BME280;5778;47.856;12.154;2022-09-01T02:02:49;96568.09;;;14.55;100.00
11444;BME280;5778;47.856;12.154;2022-09-01T02:05:19;96572.34;;;14.61;100.00
11444;BME280;5778;47.856;12.154;2022-09-01T02:07:51;96564.34;;;14.56;100.00
11444;BME280;5778;47.856;12.154;2022-09-01T02:10:24;96561.09;;;14.54;100.00
11444;BME280;5778;47.856;12.154;2022-09-01T02:12:53;96566.19;;;14.55;100.00
11444;BME280;5778;47.856;12.154;2022-09-01T02:15:22;96557.91;;;14.52;100.00
11444;BME280;5778;47.856;12.154;2022-09-01T02:17:49;96563.00;;;14.38;100.00
11444;BME280;5778;47.856;12.154;2022-09-01T02:20:17;96556.59;;;14.34;100.00
11444;BME280;5778;47.856;12.154;2022-09-01T02:22:44;96569.97;;;14.34;100.00
11444;BME280;5778;47.856;12.154;2022-09-01T02:25:11;96558.47;;;14.39;100.00
11444;BME280;5778;47.856;12.154;2022-09-01T02:27:41;96563.56;;;14.35;100.00
11444;BME280;5778;47.856;12.154;2022-09-01T02:30:11;96554.47;;;14.36;100.00
11444;BME280;5778;47.856;12.154;2022-09-01T02:32:39;96565.16;;;14.31;100.00
11444;BME280;5778;47.856;12.154;2022-09-01T02:35:07;96568.63;;;14.32;100.00
11444;BME280;5778;47.856;12.154;2022-09-01T02:37:37;96575.06;;;14.36;100.00
11444;BME280;5778;47.856;12.154;2022-09-01T02:40:08;96576.66;;;14.27;100.00
11444;BME280;5778;47.856;12.154;2022-09-01T02:42:37;96582.00;;;14.17;100.00
11444;BME280;5778;47.856;12.154;2022-09-01T02:45:10;96580.69;;;14.19;100.00
11444;BME280;5778;47.856;12.154;2022-09-01T02:47:42;96579.31;;;14.07;100.00
11444;BME280;5778;47.856;12.154;2022-09-01T02:50:12;96578.78;;;14.05;100.00
11444;BME280;5778;47.856;12.154;2022-09-01T02:52:43;96585.47;;;13.97;100.00
11444;BME280;5778;47.856;12.154;2022-09-01T02:55:11;96578.50;;;13.96;100.00
11444;BME280;5778;47.856;12.154;2022-09-01T02:57:38;96578.78;;;13.90;100.00
11444;BME280;5778;47.856;12.154;2022-09-01T03:00:08;96577.97;;;13.89;100.00
11444;BME280;5778;47.856;12.154;2022-09-01T03:02:49;96573.41;;;13.80;100.00
11444;BME280;5778;47.856;12.154;2022-09-01T03:05:18;96570.22;;;13.73;100.00
11444;BME280;5778;47.856;12.154;2022-09-01T03:07:53;96566.72;;;13.67;100.00
11444;BME280;5778;47.856;12.154;2022-09-01T03:10:27;96558.97;;;13.71;100.00
11444;BME280;5778;47.856;12.154;2022-09-01T03:12:59;96558.97;;;13.66;100.00
11444;BME280;5778;47.856;12.154;2022-09-01T03:15:27;96558.44;;;13.64;100.00
11444;BME280;5778;47.856;12.154;2022-09-01T03:17:56;96547.47;;;13.60;100.00
11444;BME280;5778;47.856;12.154;2022-09-01T03:20:26;96545.59;;;13.51;100.00
11444;BME280;5778;47.856;12.154;2022-09-01T03:22:54;96549.84;;;13.47;100.00
11444;BME280;5778;47.856;12.154;2022-09-01T03:25:23;96550.13;;;13.50;100.00
11444;BME280;5778;47.856;12.154;2022-09-01T03:27:53;96549.84;;;13.47;100.00
11444;BME280;5778;47.856;12.154;2022-09-01T03:30:20;96552.75;;;13.35;100.00
11444;BME280;5778;47.856;12.154;2022-09-01T03:32:48;96550.34;;;13.34;100.00
11444;BME280;5778;47.856;12.154;2022-09-01T03:35:17;96549.53;;;13.28;100.00
11444;BME280;5778;47.856;12.154;2022-09-01T03:37:44;96537.53;;;13.31;100.00
11444;BME280;5778;47.856;12.154;2022-09-01T03:40:12;96541.81;;;13.32;100.00
11444;BME280;5778;47.856;12.154;2022-09-01T03:42:40;96540.16;;;13.21;100.00
11444;BME280;5778;47.856;12.154;2022-09-01T03:45:09;96540.44;;;13.24;100.00
11444;BME280;5778;47.856;12.154;2022-09-01T03:47:40;96532.66;;;13.18;100.00
11444;BME280;5778;47.856;12.154;2022-09-01T03:50:12;96528.94;;;13.14;100.00
11444;BME280;5778;47.856;12.154;2022-09-01T03:52:46;96532.66;;;13.18;100.00
11444;BME280;5778;47.856;12.154;2022-09-01T03:55:13;96528.41;;;13.17;100.00
11444;BME280;5778;47.856;12.154;2022-09-01T03:57:42;96540.16;;;13.16;100.00
11444;BME280;5778;47.856;12.154;2022-09-01T04:00:13;96543.91;;;13.20;100.00
11444;BME280;5778;47.856;12.154;2022-09-01T04:02:55;96539.63;;;13.19;100.00
11444;BME280;5778;47.856;12.154;2022-09-01T04:05:27;96534.28;;;13.14;100.00
11444;BME280;5778;47.856;12.154;2022-09-01T04:07:58;96542.28;;;13.09;100.00
11444;BME280;5778;47.856;12.154;2022-09-01T04:10:29;96531.56;;;13.04;100.00
11444;BME280;5778;47.856;12.154;2022-09-01T04:12:57;96533.69;;;12.97;100.00
11444;BME280;5778;47.856;12.154;2022-09-01T04:15:26;96536.34;;;12.97;100.00
11444;BME280;5778;47.856;12.154;2022-09-01T04:17:54;96543.56;;;12.96;100.00
11444;BME280;5778;47.856;12.154;2022-09-01T04:20:35;96550.75;;;12.96;100.00
11444;BME280;5778;47.856;12.154;2022-09-01T04:23:16;96543.31;;;13.03;100.00
11444;BME280;5778;47.856;12.154;2022-09-01T04:25:46;96539.63;;;13.14;100.00
11444;BME280;5778;47.856;12.154;2022-09-01T04:28:16;96537.19;;;13.12;100.00
11444;BME280;5778;47.856;12.154;2022-09-01T04:30:51;96539.38;;;13.15;100.00
11444;BME280;5778;47.856;12.154;2022-09-01T04:33:23;96536.94;;;13.14;100.00
11444;BME280;5778;47.856;12.154;2022-09-01T04:35:52;96541.22;;;13.15;100.00
11444;BME280;5778;47.856;12.154;2022-09-01T04:38:23;96539.09;;;13.22;100.00
11444;BME280;5778;47.856;12.154;2022-09-01T04:40:54;96537.50;;;13.26;100.00
11444;BME280;5778;47.856;12.154;2022-09-01T04:43:22;96536.97;;;13.29;100.00
11444;BME280;5778;47.856;12.154;2022-09-01T04:45:50;96539.38;;;13.30;100.00
11444;BME280;5778;47.856;12.154;2022-09-01T04:48:18;96536.97;;;13.29;100.00
11444;BME280;5778;47.856;12.154;2022-09-01T04:50:47;96534.84;;;13.31;100.00
11444;BME280;5778;47.856;12.154;2022-09-01T04:53:26;96537.78;;;13.29;100.00
11444;BME280;5778;47.856;12.154;2022-09-01T04:55:54;96532.97;;;13.31;100.00
11444;BME280;5778;47.856;12.154;2022-09-01T04:58:23;96537.50;;;13.26;100.00
11444;BME280;5778;47.856;12.154;2022-09-01T05:00:51;96540.19;;;13.31;100.00
11444;BME280;5778;47.856;12.154;2022-09-01T05:03:20;96539.66;;;13.24;100.00
11444;BME280;5778;47.856;12.154;2022-09-01T05:06:15;96533.50;;;13.23;100.00
11444;BME280;5778;47.856;12.154;2022-09-01T05:08:49;96533.50;;;13.23;100.00
11444;BME280;5778;47.856;12.154;2022-09-01T05:11:37;96541.25;;;13.20;100.00
11444;BME280;5778;47.856;12.154;2022-09-01T05:14:14;96535.91;;;13.25;100.00
11444;BME280;5778;47.856;12.154;2022-09-01T05:16:43;96540.47;;;13.29;100.00
11444;BME280;5778;47.856;12.154;2022-09-01T05:19:11;96538.06;;;13.38;100.00
11444;BME280;5778;47.856;12.154;2022-09-01T05:21:41;96540.75;;;13.38;100.00
11444;BME280;5778;47.856;12.154;2022-09-01T05:24:13;96541.00;;;13.41;100.00
11444;BME280;5778;47.856;12.154;2022-09-01T05:26:42;96542.59;;;13.42;100.00
11444;BME280;5778;47.856;12.154;2022-09-01T05:29:12;96542.94;;;13.51;100.00
11444;BME280;5778;47.856;12.154;2022-09-01T05:31:46;96544.22;;;13.53;100.00
11444;BME280;5778;47.856;12.154;2022-09-01T05:34:14;96546.66;;;13.55;100.00
11444;BME280;5778;47.856;12.154;2022-09-01T05:36:53;96541.88;;;13.57;100.00
11444;BME280;5778;47.856;12.154;2022-09-01T05:39:24;96537.84;;;13.59;100.00
11444;BME280;5778;47.856;12.154;2022-09-01T05:41:52;96536.78;;;13.65;100.00
11444;BME280;5778;47.856;12.154;2022-09-01T05:44:19;96541.34;;;13.70;100.00
11444;BME280;5778;47.856;12.154;2022-09-01T05:46:48;96541.88;;;13.82;100.00
11444;BME280;5778;47.856;12.154;2022-09-01T05:49:18;96542.69;;;13.87;100.00
11444;BME280;5778;47.856;12.154;2022-09-01T05:51:49;96532.25;;;14.01;100.00
11444;BME280;5778;47.856;12.154;2022-09-01T05:54:20;96534.38;;;13.94;100.00
11444;BME280;5778;47.856;12.154;2022-09-01T05:56:52;96535.47;;;14.03;100.00
11444;BME280;5778;47.856;12.154;2022-09-01T05:59:24;96532.25;;;13.96;100.00
11444;BME280;5778;47.856;12.154;2022-09-01T06:01:58;96534.41;;;13.84;100.00
11444;BME280;5778;47.856;12.154;2022-09-01T06:04:27;96532.50;;;13.79;100.00
11444;BME280;5778;47.856;12.154;2022-09-01T06:07:00;96530.66;;;13.85;100.00
11444;BME280;5778;47.856;12.154;2022-09-01T06:09:35;96542.94;;;13.86;100.00
11444;BME280;5778;47.856;12.154;2022-09-01T06:12:05;96541.88;;;13.87;100.00
11444;BME280;5778;47.856;12.154;2022-09-01T06:14:33;96545.63;;;14.06;100.00
11444;BME280;5778;47.856;12.154;2022-09-01T06:17:00;96545.91;;;14.04;100.00
11444;BME280;5778;47.856;12.154;2022-09-01T06:19:28;96545.09;;;14.14;100.00
11444;BME280;5778;47.856;12.154;2022-09-01T06:21:58;96549.34;;;14.10;100.00
11444;BME280;5778;47.856;12.154;2022-09-01T06:24:26;96546.69;;;14.15;100.00
11444;BME280;5778;47.856;12.154;2022-09-01T06:26:53;96555.53;;;14.30;100.00
11444;BME280;5778;47.856;12.154;2022-09-01T06:29:22;96553.38;;;14.42;100.00
11444;BME280;5778;47.856;12.154;2022-09-01T06:31:49;96553.06;;;14.59;100.00
11444;BME280;5778;47.856;12.154;2022-09-01T06:34:18;96550.38;;;14.64;100.00
11444;BME280;5778;47.856;12.154;2022-09-01T06:36:47;96546.13;;;14.53;100.00
11444;BME280;5778;47.856;12.154;2022-09-01T06:39:19;96556.59;;;14.39;100.00
11444;BME280;5778;47.856;12.154;2022-09-01T06:41:51;96558.47;;;14.24;100.00
11444;BME280;5778;47.856;12.154;2022-09-01T06:44:27;96559.53;;;14.13;100.00
11444;BME280;5778;47.856;12.154;2022-09-01T06:47:04;96553.91;;;13.99;100.00
11444;BME280;5778;47.856;12.154;2022-09-01T06:49:33;96560.34;;;14.13;100.00
11444;BME280;5778;47.856;12.154;2022-09-01T06:52:07;96562.75;;;14.30;100.00
11444;BME280;5778;47.856;12.154;2022-09-01T06:54:36;96564.91;;;14.33;100.00
11444;BME280;5778;47.856;12.154;2022-09-01T06:57:05;96557.13;;;14.41;100.00
11444;BME280;5778;47.856;12.154;2022-09-01T06:59:34;96568.09;;;14.30;100.00
11444;BME280;5778;47.856;12.154;2022-09-01T07:02:04;96558.97;;;14.16;100.00
11444;BME280;5778;47.856;12.154;2022-09-01T07:04:50;96566.50;;;14.39;100.00
11444;BME280;5778;47.856;12.154;2022-09-01T07:07:18;96576.41;;;14.28;100.00
11444;BME280;5778;47.856;12.154;2022-09-01T07:10:05;96572.94;;;14.38;100.00
11444;BME280;5778;47.856;12.154;2022-09-01T07:12:43;96571.56;;;14.40;100.00
11444;BME280;5778;47.856;12.154;2022-09-01T07:15:13;96576.91;;;14.50;100.00
11444;BME280;5778;47.856;12.154;2022-09-01T07:17:45;96575.03;;;14.56;100.00
11444;BME280;5778;47.856;12.154;2022-09-01T07:20:15;96573.13;;;14.66;100.00
11444;BME280;5778;47.856;12.154;2022-09-01T07:22:43;96579.31;;;14.62;100.00
11444;BME280;5778;47.856;12.154;2022-09-01T07:25:10;96580.06;;;14.77;100.00
11444;BME280;5778;47.856;12.154;2022-09-01T07:27:56;96567.00;;;14.61;100.00
11444;BME280;5778;47.856;12.154;2022-09-01T07:30:27;96581.69;;;14.73;100.00
11444;BME280;5778;47.856;12.154;2022-09-01T07:32:56;96583.53;;;14.93;100.00
11444;BME280;5778;47.856;12.154;2022-09-01T07:35:24;96584.00;;;15.05;100.00
11444;BME280;5778;47.856;12.154;2022-09-01T07:37:51;96584.44;;;15.32;100.00
11444;BME280;5778;47.856;12.154;2022-09-01T07:40:20;96586.72;;;15.58;100.00
11444;BME280;5778;47.856;12.154;2022-09-01T07:42:56;96578.38;;;15.70;100.00
11444;BME280;5778;47.856;12.154;2022-09-01T07:45:43;96571.97;;;16.04;100.00
11444;BME280;5778;47.856;12.154;2022-09-01T07:48:16;96587.31;;;16.61;100.00
11444;BME280;5778;47.856;12.154;2022-09-01T07:50:48;96572.34;;;16.55;100.00
11444;BME280;5778;47.856;12.154;2022-09-01T07:53:21;96576.56;;;16.89;100.00
11444;BME280;5778;47.856;12.154;2022-09-01T07:55:53;96569.75;;;16.97;100.00
11444;BME280;5778;47.856;12.154;2022-09-01T07:58:23;96570.31;;;17.17;100.00
11444;BME280;5778;47.856;12.154;2022-09-01T08:00:57;96565.84;;;17.31;100.00
11444;BME280;5778;47.856;12.154;2022-09-01T08:03:28;96568.97;;;17.43;100.00
11444;BME280;5778;47.856;12.154;2022-09-01T08:06:16;96572.47;;;17.62;100.00
11444;BME280;5778;47.856;12.154;2022-09-01T08:08:47;96576.03;;;18.32;100.00
11444;BME280;5778;47.856;12.154;2022-09-01T08:11:16;96576.69;;;18.69;100.00
11444;BME280;5778;47.856;12.154;2022-09-01T08:13:45;96573.13;;;18.74;100.00
11444;BME280;5778;47.856;12.154;2022-09-01T08:16:30;96568.13;;;18.67;100.00
11444;BME280;5778;47.856;12.154;2022-09-01T08:19:04;96565.13;;;18.55;100.00
11444;BME280;5778;47.856;12.154;2022-09-01T08:21:52;96570.78;;;18.54;100.00
11444;BME280;5778;47.856;12.154;2022-09-01T08:24:33;96578.31;;;18.84;100.00
11444;BME280;5778;47.856;12.154;2022-09-01T08:27:04;96576.34;;;19.03;100.00
11444;BME280;5778;47.856;12.154;2022-09-01T08:29:31;96574.06;;;19.37;100.00
11444;BME280;5778;47.856;12.154;2022-09-01T08:32:00;96578.16;;;19.61;100.00
11444;BME280;5778;47.856;12.154;2022-09-01T08:34:27;96572.03;;;19.69;100.00
11444;BME280;5778;47.856;12.154;2022-09-01T08:37:20;96575.56;;;19.56;100.00
11444;BME280;5778;47.856;12.154;2022-09-01T08:39:47;96579.19;;;19.25;100.00
11444;BME280;5778;47.856;12.154;2022-09-01T08:42:19;96583.03;;;18.92;100.00
11444;BME280;5778;47.856;12.154;2022-09-01T08:44:56;96581.13;;;19.06;100.00
11444;BME280;5778;47.856;12.154;2022-09-01T08:47:44;96586.16;;;19.26;100.00
11444;BME280;5778;47.856;12.154;2022-09-01T08:50:12;96582.88;;;19.42;100.00
11444;BME280;5778;47.856;12.154;2022-09-01T08:53:06;96588.63;;;19.63;100.00
11444;BME280;5778;47.856;12.154;2022-09-01T08:55:41;96586.00;;;19.85;100.00
11444;BME280;5778;47.856;12.154;2022-09-01T08:58:14;96590.41;;;19.81;100.00
11444;BME280;5778;47.856;12.154;2022-09-01T09:00:54;96576.88;;;19.94;100.00
11444;BME280;5778;47.856;12.154;2022-09-01T09:03:32;96582.44;;;19.62;100.00
11444;BME280;5778;47.856;12.154;2022-09-01T09:06:12;96584.28;;;19.89;100.00
11444;BME280;5778;47.856;12.154;2022-09-01T09:08:55;96578.78;;;19.94;100.00
11444;BME280;5778;47.856;12.154;2022-09-01T09:11:56;96582.03;;;19.69;100.00
11444;BME280;5778;47.856;12.154;2022-09-01T09:14:36;96586.25;;;19.48;100.00
11444;BME280;5778;47.856;12.154;2022-09-01T09:17:05;96575.25;;;20.07;100.00
11444;BME280;5778;47.856;12.154;2022-09-01T09:19:38;96566.81;;;20.44;100.00
11444;BME280;5778;47.856;12.154;2022-09-01T09:22:08;96577.34;;;20.76;100.00
11444;BME280;5778;47.856;12.154;2022-09-01T09:24:40;96570.22;;;20.58;100.00
11444;BME280;5778;47.856;12.154;2022-09-01T09:27:43;96568.03;;;20.60;100.00
11444;BME280;5778;47.856;12.154;2022-09-01T09:30:12;96565.56;;;20.28;100.00
11444;BME280;5778;47.856;12.154;2022-09-01T09:32:48;96565.44;;;20.55;100.00
11444;BME280;5778;47.856;12.154;2022-09-01T09:35:26;96567.22;;;20.15;100.00
11444;BME280;5778;47.856;12.154;2022-09-01T09:37:55;96566.06;;;20.30;100.00
11444;BME280;5778;47.856;12.154;2022-09-01T09:40:24;96569.72;;;20.56;100.00
11444;BME280;5778;47.856;12.154;2022-09-01T09:43:02;96563.31;;;20.74;100.00
11444;BME280;5778;47.856;12.154;2022-09-01T09:45:42;96569.88;;;21.12;100.00
11444;BME280;5778;47.856;12.154;2022-09-01T09:48:42;96565.25;;;21.60;100.00
11444;BME280;5778;47.856;12.154;2022-09-01T09:51:18;96566.59;;;22.22;100.00
11444;BME280;5778;47.856;12.154;2022-09-01T09:53:46;96557.22;;;22.28;100.00
11444;BME280;5778;47.856;12.154;2022-09-01T09:56:24;96562.78;;;22.31;100.00
11444;BME280;5778;47.856;12.154;2022-09-01T09:58:52;96557.50;;;22.43;100.00
11444;BME280;5778;47.856;12.154;2022-09-01T10:01:29;96555.16;;;22.08;100.00
11444;BME280;5778;47.856;12.154;2022-09-01T10:03:58;96560.06;;;21.80;100.00
11444;BME280;5778;47.856;12.154;2022-09-01T10:06:35;96563.75;;;21.93;100.00
11444;BME280;5778;47.856;12.154;2022-09-01T10:09:04;96558.66;;;22.17;100.00
11444;BME280;5778;47.856;12.154;2022-09-01T10:11:36;96561.38;;;22.51;100.00
11444;BME280;5778;47.856;12.154;2022-09-01T10:14:06;96550.97;;;22.53;100.00
11444;BME280;5778;47.856;12.154;2022-09-01T10:16:38;96556.56;;;22.48;100.00
11444;BME280;5778;47.856;12.154;2022-09-01T10:22:31;96554.94;;;21.70;100.00
11444;BME280;5778;47.856;12.154;2022-09-01T10:24:59;96557.81;;;21.65;100.00
11444;BME280;5778;47.856;12.154;2022-09-01T10:27:39;96553.59;;;21.42;100.00
11444;BME280;5778;47.856;12.154;2022-09-01T10:30:10;96552.56;;;21.69;100.00
11444;BME280;5778;47.856;12.154;2022-09-01T10:32:41;96548.19;;;21.51;100.00
11444;BME280;5778;47.856;12.154;2022-09-01T10:35:11;96554.91;;;21.62;100.00
11444;BME280;5778;47.856;12.154;2022-09-01T10:37:42;96545.56;;;21.68;100.00
11444;BME280;5778;47.856;12.154;2022-09-01T10:40:16;96543.53;;;21.26;100.00
11444;BME280;5778;47.856;12.154;2022-09-01T10:42:45;96549.22;;;21.72;100.00
11444;BME280;5778;47.856;12.154;2022-09-01T10:45:33;96551.31;;;21.75;100.00
11444;BME280;5778;47.856;12.154;2022-09-01T10:48:23;96546.22;;;21.99;100.00
11444;BME280;5778;47.856;12.154;2022-09-01T10:50:53;96551.59;;;22.33;100.00
11444;BME280;5778;47.856;12.154;2022-09-01T10:53:42;96553.72;;;21.93;100.00
11444;BME280;5778;47.856;12.154;2022-09-01T10:56:16;96554.50;;;21.94;100.00
11444;BME280;5778;47.856;12.154;2022-09-01T10:59:03;96554.19;;;22.21;100.00
11444;BME280;5778;47.856;12.154;2022-09-01T11:02:11;96553.03;;;23.10;100.00
11444;BME280;5778;47.856;12.154;2022-09-01T11:07:43;96545.59;;;22.99;100.00
11444;BME280;5778;47.856;12.154;2022-09-01T11:10:29;96546.16;;;23.13;100.00
11444;BME280;5778;47.856;12.154;2022-09-01T11:13:35;96556.22;;;23.79;100.00
11444;BME280;5778;47.856;12.154;2022-09-01T11:19:39;96543.81;;;24.19;100.00
11444;BME280;5778;47.856;12.154;2022-09-01T11:22:23;96541.16;;;24.43;100.00
11444;BME280;5778;47.856;12.154;2022-09-01T11:31:10;96535.75;;;25.44;94.56
11444;BME280;5778;47.856;12.154;2022-09-01T11:33:49;96534.59;;;25.45;92.41
11444;BME280;5778;47.856;12.154;2022-09-01T11:39:33;96531.06;;;25.20;90.71
11444;BME280;5778;47.856;12.154;2022-09-01T11:42:06;96540.66;;;25.90;92.41
11444;BME280;5778;47.856;12.154;2022-09-01T11:44:43;96532.91;;;25.28;91.06
11444;BME280;5778;47.856;12.154;2022-09-01T11:47:18;96534.59;;;25.45;84.74
11444;BME280;5778;47.856;12.154;2022-09-01T11:49:54;96530.66;;;25.30;96.03
11444;BME280;5778;47.856;12.154;2022-09-01T11:52:25;96532.22;;;25.43;86.08
11444;BME280;5778;47.856;12.154;2022-09-01T11:54:53;96537.75;;;25.71;84.98
11444;BME280;5778;47.856;12.154;2022-09-01T11:57:39;96537.56;;;25.28;92.65
11444;BME280;5778;47.856;12.154;2022-09-01T12:00:12;96541.03;;;24.60;96.85
11444;BME280;5778;47.856;12.154;2022-09-01T12:02:44;96535.72;;;24.10;99.53
11444;BME280;5778;47.856;12.154;2022-09-01T12:05:24;96532.84;;;24.27;99.63
11444;BME280;5778;47.856;12.154;2022-09-01T12:07:52;96539.16;;;23.99;100.00
11444;BME280;5778;47.856;12.154;2022-09-01T12:10:23;96526.53;;;24.35;100.00
11444;BME280;5778;47.856;12.154;2022-09-01T12:12:59;96523.97;;;24.71;100.00
11444;BME280;5778;47.856;12.154;2022-09-01T12:19:04;96525.94;;;24.95;97.25
11444;BME280;5778;47.856;12.154;2022-09-01T12:21:34;96515.38;;;25.17;94.51
11444;BME280;5778;47.856;12.154;2022-09-01T12:24:11;96523.47;;;25.26;89.27
11444;BME280;5778;47.856;12.154;2022-09-01T12:26:43;96522.13;;;25.44;83.24
11444;BME280;5778;47.856;12.154;2022-09-01T12:29:11;96521.16;;;25.76;80.54
11444;BME280;5778;47.856;12.154;2022-09-01T12:31:40;96520.03;;;25.77;77.38
11444;BME280;5778;47.856;12.154;2022-09-01T12:34:25;96525.34;;;25.85;66.98
11444;BME280;5778;47.856;12.154;2022-09-01T12:37:17;96520.88;;;26.17;67.57
11444;BME280;5778;47.856;12.154;2022-09-01T12:39:47;96507.63;;;26.31;75.16
11444;BME280;5778;47.856;12.154;2022-09-01T12:42:24;96513.00;;;26.70;67.94
11444;BME280;5778;47.856;12.154;2022-09-01T12:44:54;96513.31;;;26.81;66.92
11444;BME280;5778;47.856;12.154;2022-09-01T12:47:48;96510.28;;;26.55;64.13
11444;BME280;5778;47.856;12.154;2022-09-01T12:53:39;96517.22;;;27.26;66.73
11444;BME280;5778;47.856;12.154;2022-09-01T12:56:33;96514.97;;;27.63;61.85
11444;BME280;5778;47.856;12.154;2022-09-01T12:59:06;96518.47;;;26.70;62.34
11444;BME280;5778;47.856;12.154;2022-09-01T13:01:38;96509.50;;;25.51;71.50
11444;BME280;5778;47.856;12.154;2022-09-01T13:04:12;96511.47;;;25.39;79.04
11444;BME280;5778;47.856;12.154;2022-09-01T13:06:52;96506.00;;;25.51;79.80
11444;BME280;5778;47.856;12.154;2022-09-01T13:09:21;96502.34;;;25.71;75.49
11444;BME280;5778;47.856;12.154;2022-09-01T13:11:49;96502.59;;;25.42;65.88
11444;BME280;5778;47.856;12.154;2022-09-01T13:14:16;96506.13;;;25.42;63.72
11444;BME280;5778;47.856;12.154;2022-09-01T13:17:01;96501.44;;;26.18;65.71
11444;BME280;5778;47.856;12.154;2022-09-01T13:19:43;96496.56;;;26.67;58.29
11444;BME280;5778;47.856;12.154;2022-09-01T13:22:11;96501.88;;;27.22;57.87
11444;BME280;5778;47.856;12.154;2022-09-01T13:24:39;96504.34;;;27.42;57.03
11444;BME280;5778;47.856;12.154;2022-09-01T13:27:32;96507.03;;;27.58;54.97
11444;BME280;5778;47.856;12.154;2022-09-01T13:29:59;96501.03;;;28.02;56.19
11444;BME280;5778;47.856;12.154;2022-09-01T13:32:27;96497.09;;;28.00;55.52
11444;BME280;5778;47.856;12.154;2022-09-01T13:34:54;96491.66;;;27.34;58.86
11444;BME280;5778;47.856;12.154;2022-09-01T13:37:51;96498.75;;;26.06;62.07
11444;BME280;5778;47.856;12.154;2022-09-01T13:40:21;96508.03;;;25.54;67.88
11444;BME280;5778;47.856;12.154;2022-09-01T13:42:50;96498.91;;;24.78;69.34
11444;BME280;5778;47.856;12.154;2022-09-01T13:45:36;96500.63;;;24.82;78.65
11444;BME280;5778;47.856;12.154;2022-09-01T13:48:05;96491.44;;;24.75;78.37
11444;BME280;5778;47.856;12.154;2022-09-01T13:50:44;96498.22;;;24.36;87.10